Time;durP1;ratioP1;P1;durP2;ratioP2;P2;SDS_P1;SDS_P2;PMS_P1;PMS_P2;Temp;Humidity;BMP_temperature;BMP_pressure;BME280_temperature;BME280_humidity;BME280_pressure;Samples;Min_cycle;Max_cycle;Signal;HPM_P1;HPM_P2
2022/08/18 00:02:19;;;;;;;12.98;8.50;;;18.80;99.90;;;;;;5095120;28;20055;-58
2022/08/18 00:04:45;;;;;;;11.80;8.20;;;18.80;99.90;;;;;;5095226;28;20028;-59
2022/08/18 00:07:15;;;;;;;10.60;8.02;;;18.70;99.90;;;;;;5095266;28;20051;-58
2022/08/18 00:09:42;;;;;;;18.17;8.70;;;18.70;99.90;;;;;;5095045;28;20024;-59
2022/08/18 00:12:36;;;;;;;14.13;7.35;;;18.70;99.90;;;;;;5095296;28;20023;-59
2022/08/18 00:15:04;;;;;;;9.57;7.93;;;18.70;99.90;;;;;;5093810;28;20043;-58
2022/08/18 00:17:31;;;;;;;13.02;8.48;;;18.70;99.90;;;;;;5095306;28;20024;-59
2022/08/18 00:19:58;;;;;;;11.88;7.93;;;18.50;99.90;;;;;;5095331;28;20027;-59
2022/08/18 00:22:24;;;;;;;10.15;7.75;;;18.60;99.90;;;;;;5095074;28;20043;-58
2022/08/18 00:24:54;;;;;;;13.60;9.02;;;18.60;99.90;;;;;;5095149;28;20050;-59
2022/08/18 00:27:25;;;;;;;12.52;7.72;;;18.50;99.90;;;;;;5094871;28;20035;-58
2022/08/18 00:29:53;;;;;;;12.00;7.95;;;18.50;99.90;;;;;;5094923;28;20044;-58
2022/08/18 00:32:25;;;;;;;10.20;7.90;;;18.40;99.90;;;;;;5095086;28;20062;-59
2022/08/18 00:34:52;;;;;;;14.23;8.20;;;18.40;99.90;;;;;;5094859;28;20071;-59
2022/08/18 00:37:18;;;;;;;12.48;8.32;;;18.50;99.90;;;;;;5095023;28;20028;-58
2022/08/18 00:39:44;;;;;;;14.02;9.30;;;18.50;99.90;;;;;;5095007;28;20370;-59
2022/08/18 00:42:16;;;;;;;15.25;9.40;;;18.40;99.90;;;;;;5094877;28;20043;-58
2022/08/18 00:44:42;;;;;;;16.25;9.55;;;18.40;99.90;;;;;;5094862;28;20028;-58
2022/08/18 00:47:08;;;;;;;13.27;8.30;;;18.40;99.90;;;;;;5094828;28;20028;-58
2022/08/18 00:49:35;;;;;;;12.82;8.70;;;18.40;99.90;;;;;;5094754;28;20080;-59
2022/08/18 00:52:01;;;;;;;13.95;8.20;;;18.40;99.90;;;;;;5094773;28;20103;-58
2022/08/18 00:54:30;;;;;;;11.55;7.50;;;18.40;99.90;;;;;;5094699;28;20039;-58
2022/08/18 00:57:00;;;;;;;11.60;7.88;;;18.30;99.90;;;;;;5094751;28;20027;-58
2022/08/18 00:59:32;;;;;;;13.70;7.95;;;18.30;99.90;;;;;;5094591;28;20035;-58
2022/08/18 01:02:01;;;;;;;11.18;7.82;;;18.30;99.90;;;;;;5094527;28;20077;-59
2022/08/18 01:04:36;;;;;;;12.20;8.57;;;18.30;99.90;;;;;;5094601;28;20469;-58
2022/08/18 01:07:14;;;;;;;10.63;7.18;;;18.30;99.90;;;;;;5094386;28;20062;-58
2022/08/18 01:09:40;;;;;;;12.90;7.47;;;18.40;99.90;;;;;;5094307;28;20024;-59
2022/08/18 01:12:08;;;;;;;11.73;7.97;;;18.40;99.90;;;;;;5094666;28;20452;-58
2022/08/18 01:14:36;;;;;;;10.23;7.78;;;18.40;99.90;;;;;;5094687;28;20028;-58
2022/08/18 01:22:42;;;;;;;13.02;8.20;;;18.40;99.90;;;;;;5098616;28;20381;-58
2022/08/18 01:27:56;;;;;;;12.55;8.05;;;18.30;99.90;;;;;;5098170;28;20101;-58
2022/08/18 01:30:24;;;;;;;12.23;7.80;;;18.20;99.90;;;;;;5098425;28;20404;-58
2022/08/18 01:32:51;;;;;;;11.98;8.13;;;18.20;99.90;;;;;;5098470;28;20031;-59
2022/08/18 01:35:20;;;;;;;11.38;8.88;;;18.10;99.90;;;;;;5098389;28;20389;-58
2022/08/18 01:37:46;;;;;;;12.80;8.27;;;18.10;99.90;;;;;;5098534;28;20028;-58
2022/08/18 01:40:14;;;;;;;12.73;8.35;;;18.10;99.90;;;;;;5098524;28;20024;-58
2022/08/18 01:42:45;;;;;;;12.63;8.13;;;18.20;99.90;;;;;;5098180;28;20093;-58
2022/08/18 01:45:14;;;;;;;10.70;8.48;;;18.20;99.90;;;;;;5098229;28;20447;-58
2022/08/18 01:47:40;;;;;;;12.20;9.20;;;18.10;99.90;;;;;;5096723;28;20036;-59
2022/08/18 01:50:07;;;;;;;14.55;7.85;;;18.10;99.90;;;;;;5098018;28;20024;-58
2022/08/18 01:52:34;;;;;;;16.40;8.48;;;18.10;99.90;;;;;;5098581;28;20107;-58
2022/08/18 01:55:00;;;;;;;16.40;8.68;;;18.00;99.90;;;;;;5098064;28;20031;-58
2022/08/18 01:57:28;;;;;;;11.55;7.93;;;18.00;99.90;;;;;;5098000;28;20047;-58
2022/08/18 01:59:54;;;;;;;12.48;8.30;;;18.00;99.90;;;;;;5097956;28;20032;-58
2022/08/18 02:02:26;;;;;;;10.85;7.90;;;18.00;99.90;;;;;;5097831;28;20385;-58
2022/08/18 02:04:59;;;;;;;11.52;8.40;;;18.00;99.90;;;;;;5097997;28;20043;-58
2022/08/18 02:07:25;;;;;;;11.30;7.95;;;17.90;99.90;;;;;;5097582;28;20445;-58
2022/08/18 02:09:52;;;;;;;8.68;6.95;;;18.00;99.90;;;;;;5097446;28;20108;-58
2022/08/18 02:12:19;;;;;;;12.57;8.07;;;17.90;99.90;;;;;;5096528;28;20036;-58
2022/08/18 02:14:45;;;;;;;13.52;8.65;;;17.90;99.90;;;;;;5097818;28;20036;-58
2022/08/18 02:17:12;;;;;;;11.63;7.50;;;17.90;99.90;;;;;;5097452;28;20032;-58
2022/08/18 02:19:46;;;;;;;12.75;9.27;;;17.90;99.90;;;;;;5097567;28;20482;-58
2022/08/18 02:22:15;;;;;;;11.75;8.55;;;17.90;99.90;;;;;;5097449;28;20032;-58
2022/08/18 02:24:41;;;;;;;11.32;8.18;;;17.80;99.90;;;;;;5097437;28;20032;-59
2022/08/18 02:27:09;;;;;;;10.13;8.25;;;17.80;99.90;;;;;;5097362;28;20039;-58
2022/08/18 02:29:36;;;;;;;13.32;8.35;;;17.70;99.90;;;;;;5112323;27;20046;-59
2022/08/18 02:32:02;;;;;;;11.80;8.35;;;17.70;99.90;;;;;;5133640;27;20122;-58
2022/08/18 02:34:28;;;;;;;10.13;8.27;;;17.70;99.90;;;;;;5130336;27;20043;-58
2022/08/18 02:36:54;;;;;;;12.98;8.65;;;17.70;99.90;;;;;;5124276;27;20057;-58
2022/08/18 02:39:20;;;;;;;11.68;9.10;;;17.70;99.90;;;;;;5132120;27;20126;-59
2022/08/18 02:41:46;;;;;;;12.13;8.57;;;17.70;99.90;;;;;;5115501;27;20393;-59
2022/08/18 02:44:12;;;;;;;12.20;7.82;;;17.60;99.90;;;;;;5108285;27;20047;-59
2022/08/18 02:46:39;;;;;;;12.05;8.48;;;17.60;99.90;;;;;;5029585;28;20044;-59
2022/08/18 02:49:06;;;;;;;8.52;7.57;;;17.60;99.90;;;;;;5076823;28;20033;-58
2022/08/18 02:51:33;;;;;;;11.43;8.85;;;17.60;99.90;;;;;;5076771;28;20082;-58
2022/08/18 02:53:59;;;;;;;13.13;8.50;;;17.60;99.90;;;;;;5076793;28;20027;-58
2022/08/18 02:56:29;;;;;;;12.77;8.65;;;17.60;99.90;;;;;;5076719;28;20032;-58
2022/08/18 02:59:06;;;;;;;15.05;7.97;;;17.60;99.90;;;;;;5076990;28;20446;-58
2022/08/18 03:01:37;;;;;;;13.82;8.55;;;17.60;99.90;;;;;;5076632;28;20107;-58
2022/08/18 03:04:05;;;;;;;;;;;17.60;99.90;;;;;;5077011;28;20072;-58
2022/08/18 03:06:32;;;;;;;13.55;7.65;;;17.50;99.90;;;;;;5076437;28;19954;-58
2022/08/18 03:08:57;;;;;;;12.70;7.65;;;17.50;99.90;;;;;;5076322;28;20048;-58
2022/08/18 03:11:26;;;;;;;11.65;9.00;;;17.50;99.90;;;;;;5076100;28;20063;-58
2022/08/18 03:13:53;;;;;;;13.15;9.43;;;17.50;99.90;;;;;;5076267;28;20033;-58
2022/08/18 03:16:20;;;;;;;15.27;8.55;;;17.50;99.90;;;;;;5076252;28;20058;-58
2022/08/18 03:18:46;;;;;;;13.38;8.50;;;17.50;99.90;;;;;;5076319;28;20051;-58
2022/08/18 03:21:16;;;;;;;11.43;8.80;;;17.40;99.90;;;;;;5076260;28;20111;-58
2022/08/18 03:23:42;;;;;;;13.68;8.07;;;17.40;99.90;;;;;;5076392;28;20036;-58
2022/08/18 03:26:11;;;;;;;12.93;8.07;;;17.30;99.90;;;;;;5076325;28;20029;-58
2022/08/18 03:28:44;;;;;;;14.40;8.25;;;17.40;99.90;;;;;;5075922;28;20489;-58
2022/08/18 03:31:13;;;;;;;10.55;7.75;;;17.30;99.90;;;;;;5075919;28;20032;-58
2022/08/18 03:33:41;;;;;;;11.02;7.95;;;17.30;99.90;;;;;;5075976;28;20032;-58
2022/08/18 03:36:23;;;;;;;10.35;8.07;;;17.30;99.90;;;;;;5075777;28;20066;-58
2022/08/18 03:38:51;;;;;;;12.85;8.93;;;17.20;99.90;;;;;;5075918;28;20100;-58
2022/08/18 03:41:21;;;;;;;13.20;8.80;;;17.20;99.90;;;;;;5074880;28;20060;-58
2022/08/18 03:43:48;;;;;;;11.98;8.35;;;17.20;99.90;;;;;;5075808;28;20032;-58
2022/08/18 03:46:17;;;;;;;13.48;8.57;;;17.20;99.90;;;;;;5075557;28;20391;-58
2022/08/18 03:48:45;;;;;;;10.18;8.52;;;17.20;99.90;;;;;;5075615;28;20523;-58
2022/08/18 03:51:20;;;;;;;10.48;8.25;;;17.20;99.90;;;;;;5075443;28;20393;-58
2022/08/18 03:53:48;;;;;;;17.50;9.18;;;17.20;99.90;;;;;;5075487;28;20045;-58
2022/08/18 03:56:18;;;;;;;12.93;8.77;;;17.30;99.90;;;;;;5075483;28;20032;-58
2022/08/18 03:58:47;;;;;;;15.82;9.43;;;17.20;99.90;;;;;;5075309;28;20452;-58
2022/08/18 04:01:15;;;;;;;12.98;9.35;;;17.20;99.90;;;;;;5075309;28;20021;-58
2022/08/18 04:03:44;;;;;;;10.75;8.15;;;17.20;99.90;;;;;;5075218;28;20181;-58
2022/08/18 04:06:19;;;;;;;13.65;8.27;;;17.20;99.90;;;;;;5075137;28;20036;-58
2022/08/18 04:08:47;;;;;;;10.93;8.73;;;17.20;99.90;;;;;;5075661;28;20037;-58
2022/08/18 04:11:14;;;;;;;14.45;9.75;;;17.20;99.90;;;;;;5073585;28;20032;-58
2022/08/18 04:13:40;;;;;;;13.40;8.70;;;17.20;99.90;;;;;;5075071;28;20032;-58
2022/08/18 04:16:06;;;;;;;12.98;9.30;;;17.20;99.90;;;;;;5075251;28;20051;-58
2022/08/18 04:18:32;;;;;;;16.02;9.60;;;17.20;99.90;;;;;;5075069;28;20029;-58
2022/08/18 04:21:08;;;;;;;18.70;9.55;;;17.20;99.90;;;;;;5075013;28;20111;-58
2022/08/18 04:23:36;;;;;;;15.55;8.77;;;17.20;99.90;;;;;;5073923;28;20435;-58
2022/08/18 04:26:03;;;;;;;15.15;10.50;;;17.20;99.90;;;;;;5074887;28;20032;-58
2022/08/18 04:28:31;;;;;;;22.50;9.90;;;17.30;99.90;;;;;;5075115;28;20128;-58
2022/08/18 04:30:58;;;;;;;17.63;9.65;;;17.30;99.90;;;;;;5074774;28;20035;-58
2022/08/18 04:33:26;;;;;;;16.67;10.82;;;17.30;99.90;;;;;;5074720;28;20052;-58
2022/08/18 04:35:53;;;;;;;15.80;10.10;;;17.40;99.90;;;;;;5074817;28;20197;-58
2022/08/18 04:38:20;;;;;;;25.35;10.38;;;17.50;99.90;;;;;;5074997;28;20036;-58
2022/08/18 04:40:46;;;;;;;18.77;10.80;;;17.50;99.90;;;;;;5074663;28;20123;-58
2022/08/18 04:43:14;;;;;;;16.83;9.95;;;17.60;99.90;;;;;;5074646;28;20032;-58
2022/08/18 04:45:46;;;;;;;15.82;9.88;;;17.60;99.90;;;;;;5074570;28;20112;-58
2022/08/18 04:48:14;;;;;;;16.98;10.15;;;17.70;99.90;;;;;;5074271;28;20106;-58
2022/08/18 04:50:41;;;;;;;19.80;11.15;;;17.80;99.90;;;;;;5074328;28;20074;-58
2022/08/18 04:55:54;;;;;;;20.92;11.70;;;17.90;99.90;;;;;;5074525;28;20492;-58
2022/08/18 04:58:22;;;;;;;14.90;11.15;;;18.00;99.90;;;;;;5074581;28;20488;-58
2022/08/18 05:01:00;;;;;;;15.07;10.35;;;18.10;99.90;;;;;;5074765;28;20028;-58
2022/08/18 05:03:26;;;;;;;18.52;10.63;;;18.20;99.90;;;;;;5074373;28;20063;-58
2022/08/18 05:05:58;;;;;;;20.58;11.65;;;18.20;99.90;;;;;;5074426;28;20055;-58
2022/08/18 05:08:25;;;;;;;18.42;11.20;;;18.30;99.90;;;;;;5074034;28;20036;-58
2022/08/18 05:10:56;;;;;;;24.92;13.05;;;18.40;99.90;;;;;;5074010;28;20170;-58
2022/08/18 05:13:24;;;;;;;18.67;11.63;;;18.50;99.90;;;;;;5063282;28;20096;-58
2022/08/18 05:15:58;;;;;;;23.75;13.27;;;18.50;99.90;;;;;;5045745;28;20382;-58
2022/08/18 05:18:24;;;;;;;21.52;11.20;;;18.70;99.90;;;;;;5045772;28;20112;-58
2022/08/18 05:20:55;;;;;;;20.63;11.95;;;18.90;99.90;;;;;;5038517;28;20047;-58
2022/08/18 05:23:22;;;;;;;19.75;11.82;;;19.10;99.90;;;;;;5038725;28;20496;-58
2022/08/18 05:25:49;;;;;;;22.27;11.32;;;19.20;99.90;;;;;;5043953;28;20432;-58
2022/08/18 05:28:15;;;;;;;24.13;13.48;;;19.30;99.90;;;;;;5052102;28;20031;-58
2022/08/18 05:30:42;;;;;;;19.73;12.98;;;19.40;99.90;;;;;;5053690;28;20298;-58
2022/08/18 05:33:11;;;;;;;22.50;11.65;;;19.50;99.90;;;;;;5053789;28;20025;-58
2022/08/18 05:35:46;;;;;;;18.70;10.93;;;19.60;99.90;;;;;;5053508;28;20482;-58
2022/08/18 05:38:38;;;;;;;22.52;12.18;;;19.70;99.90;;;;;;5046727;28;20030;-58
2022/08/18 05:41:12;;;;;;;18.45;11.05;;;19.80;99.90;;;;;;5036889;28;20032;-58
2022/08/18 05:43:39;;;;;;;19.88;11.23;;;19.90;99.90;;;;;;5052064;28;20047;-58
2022/08/18 05:46:07;;;;;;;27.20;12.50;;;20.00;99.90;;;;;;5049010;28;20053;-58
2022/08/18 05:48:34;;;;;;;22.25;11.18;;;20.00;99.90;;;;;;5049887;28;20045;-58
2022/08/18 05:51:10;;;;;;;23.98;11.20;;;20.20;99.90;;;;;;5052701;28;20104;-58
2022/08/18 05:59:20;;;;;;;27.67;13.23;;;20.60;99.90;;;;;;5039324;28;20351;-58
2022/08/18 06:01:51;;;;;;;16.00;10.68;;;20.70;99.90;;;;;;5047957;28;20025;-58
2022/08/18 06:04:52;;;;;;;20.52;11.00;;;20.90;99.90;;;;;;5050420;28;20509;-58
2022/08/18 06:07:36;;;;;;;24.17;11.57;;;21.20;99.90;;;;;;5049689;28;20080;-58
2022/08/18 06:10:08;;;;;;;21.40;11.00;;;21.40;99.90;;;;;;5050941;28;20370;-58
2022/08/18 06:12:42;;;;;;;22.52;10.55;;;21.60;99.90;;;;;;5048208;28;20028;-58
2022/08/18 06:15:45;;;;;;;27.23;11.77;;;21.80;99.90;;;;;;5046223;28;20029;-58
2022/08/18 06:18:18;;;;;;;33.53;11.10;;;22.00;99.90;;;;;;5040483;28;20386;-59
2022/08/18 06:21:03;;;;;;;20.65;10.43;;;22.10;99.90;;;;;;5047711;28;20727;-59
2022/08/18 06:23:33;;;;;;;19.73;10.40;;;22.30;99.90;;;;;;5044520;28;20025;-58
2022/08/18 06:26:20;;;;;;;21.70;10.45;;;22.50;99.90;;;;;;5051011;28;20036;-59
2022/08/18 06:29:04;;;;;;;28.05;10.82;;;22.60;99.90;;;;;;5057839;28;20053;-59
2022/08/18 06:31:46;;;;;;;19.30;11.02;;;22.80;99.90;;;;;;5056628;28;20100;-58
2022/08/18 06:34:57;;;;;;;29.33;14.35;;;23.00;99.90;;;;;;5057139;28;20028;-59
2022/08/18 06:37:33;;;;;;;21.83;10.85;;;23.20;99.90;;;;;;5034273;28;20033;-59
2022/08/18 06:40:00;;;;;;;20.77;10.00;;;23.40;99.90;;;;;;5053386;28;20055;-59
2022/08/18 06:42:30;;;;;;;18.13;9.45;;;23.70;99.90;;;;;;5056643;28;20040;-59
2022/08/18 06:45:11;;;;;;;18.73;9.73;;;23.90;99.90;;;;;;5056638;28;20099;-59
2022/08/18 06:48:06;;;;;;;19.48;9.38;;;24.10;99.90;;;;;;5056553;28;20049;-59
2022/08/18 06:50:41;;;;;;;17.48;8.80;;;24.30;99.70;;;;;;5056278;28;20470;-59
2022/08/18 06:53:07;;;;;;;11.18;8.65;;;24.50;99.70;;;;;;5057077;28;20024;-59
2022/08/18 06:55:39;;;;;;;16.90;8.75;;;24.70;99.10;;;;;;5056571;28;20029;-59
2022/08/18 06:58:26;;;;;;;25.15;9.55;;;25.00;99.00;;;;;;5054677;28;20033;-59
2022/08/18 07:00:59;;;;;;;21.63;10.02;;;25.30;98.90;;;;;;5052466;28;20033;-59
2022/08/18 07:03:34;;;;;;;15.77;7.75;;;25.50;97.80;;;;;;5043328;28;20478;-59
2022/08/18 07:06:19;;;;;;;9.93;7.75;;;25.70;96.40;;;;;;5051649;28;20496;-59
2022/08/18 07:08:47;;;;;;;19.10;8.30;;;26.10;96.20;;;;;;5055486;28;20028;-59
2022/08/18 07:11:28;;;;;;;18.13;8.00;;;26.20;93.80;;;;;;5070698;28;20100;-59
2022/08/18 07:14:21;;;;;;;11.40;7.80;;;26.70;93.40;;;;;;5057110;28;20040;-59
2022/08/18 07:16:48;;;;;;;13.82;8.52;;;27.00;91.20;;;;;;5043270;28;20036;-59
2022/08/18 07:19:19;;;;;;;13.07;8.98;;;27.60;91.60;;;;;;5046623;28;20158;-59
2022/08/18 07:21:59;;;;;;;21.75;9.13;;;27.50;86.20;;;;;;5048125;28;20406;-59
2022/08/18 07:24:29;;;;;;;14.40;7.90;;;27.60;81.40;;;;;;5056618;28;20466;-59
2022/08/18 07:27:10;;;;;;;16.95;7.00;;;28.00;85.90;;;;;;5056361;28;20040;-60
2022/08/18 07:30:03;;;;;;;15.75;7.18;;;28.50;80.20;;;;;;5056686;28;20112;-59
2022/08/18 07:32:39;;;;;;;17.92;7.78;;;28.70;76.40;;;;;;5055834;28;20041;-59
2022/08/18 07:35:08;;;;;;;17.17;7.28;;;29.10;74.90;;;;;;5056430;28;20390;-59
2022/08/18 07:38:03;;;;;;;11.23;7.03;;;29.10;72.00;;;;;;5056336;28;20060;-59
2022/08/18 07:40:38;;;;;;;15.10;7.22;;;29.50;69.60;;;;;;5055275;28;20044;-59
2022/08/18 07:43:26;;;;;;;17.27;8.18;;;29.80;65.20;;;;;;5056232;28;20087;-59
2022/08/18 07:45:56;;;;;;;19.48;6.72;;;30.00;65.30;;;;;;5056152;28;20126;-59
2022/08/18 07:48:30;;;;;;;10.35;6.75;;;30.20;62.20;;;;;;5055970;28;20041;-59
2022/08/18 07:51:22;;;;;;;15.05;8.98;;;30.50;62.90;;;;;;5056155;28;20025;-60
2022/08/18 07:54:09;;;;;;;14.13;7.82;;;30.90;65.60;;;;;;5056146;28;20059;-59
2022/08/18 07:56:42;;;;;;;12.32;7.68;;;31.10;61.90;;;;;;5054989;28;20351;-59
2022/08/18 07:59:24;;;;;;;9.73;7.05;;;31.20;63.10;;;;;;5055299;28;20029;-60
2022/08/18 08:02:04;;;;;;;12.02;7.68;;;31.50;61.50;;;;;;5054306;28;20033;-60
2022/08/18 08:05:00;;;;;;;12.10;7.13;;;31.50;61.50;;;;;;5063814;28;20425;-59
2022/08/18 08:07:39;;;;;;;16.25;7.90;;;31.80;61.00;;;;;;5051051;28;20036;-60
2022/08/18 08:10:26;;;;;;;14.60;7.30;;;32.10;59.30;;;;;;5045791;28;20031;-60
2022/08/18 08:13:11;;;;;;;14.77;7.82;;;32.30;58.40;;;;;;5036911;28;20132;-60
2022/08/18 08:15:45;;;;;;;12.10;7.50;;;32.20;58.40;;;;;;5054010;28;20025;-60
2022/08/18 08:18:24;;;;;;;16.55;7.72;;;32.50;57.80;;;;;;5054694;28;20459;-60
2022/08/18 08:20:57;;;;;;;11.02;7.22;;;32.40;58.10;;;;;;5053256;28;20017;-60
2022/08/18 08:23:40;;;;;;;13.82;7.47;;;32.80;58.90;;;;;;5054536;28;20033;-60
2022/08/18 08:26:29;;;;;;;11.85;7.28;;;33.00;58.80;;;;;;5051244;28;20032;-60
2022/08/18 08:29:13;;;;;;;10.57;7.18;;;33.20;58.20;;;;;;5052063;28;20090;-60
2022/08/18 08:31:56;;;;;;;10.40;6.82;;;32.80;57.00;;;;;;5054180;28;20024;-60
2022/08/18 08:34:49;;;;;;;11.38;6.85;;;32.60;57.00;;;;;;5052968;28;20110;-60
2022/08/18 08:37:35;;;;;;;13.90;7.18;;;32.50;58.90;;;;;;5054812;28;20067;-60
2022/08/18 08:40:14;;;;;;;15.25;7.47;;;33.10;57.20;;;;;;5054883;28;20052;-60
2022/08/18 08:42:52;;;;;;;12.57;6.03;;;33.80;56.60;;;;;;5053963;28;20072;-60
2022/08/18 08:45:26;;;;;;;16.10;7.13;;;34.10;54.00;;;;;;5051864;28;20021;-60
2022/08/18 08:48:08;;;;;;;11.52;6.00;;;33.40;54.40;;;;;;5053876;28;20111;-60
2022/08/18 08:50:52;;;;;;;19.23;7.60;;;34.00;55.60;;;;;;5051551;28;20017;-60
2022/08/18 08:53:37;;;;;;;18.10;6.32;;;34.60;53.20;;;;;;5053886;28;20021;-60
2022/08/18 08:56:10;;;;;;;12.52;6.72;;;35.10;52.50;;;;;;5054497;28;20056;-60
2022/08/18 08:58:47;;;;;;;8.20;5.38;;;35.30;51.60;;;;;;5054462;28;20123;-60
2022/08/18 09:01:45;;;;;;;15.50;6.65;;;35.50;51.10;;;;;;5054095;28;20025;-60
2022/08/18 09:04:47;;;;;;;12.80;5.80;;;35.60;50.00;;;;;;5053246;28;20040;-60
2022/08/18 09:08:01;;;;;;;10.30;6.20;;;35.50;49.20;;;;;;5050456;28;20436;-60
2022/08/18 09:11:20;;;;;;;8.57;5.60;;;35.90;49.30;;;;;;5056384;28;20352;-60
2022/08/18 09:14:24;;;;;;;20.85;6.20;;;35.80;47.70;;;;;;5033629;28;20038;-60
2022/08/18 09:17:18;;;;;;;7.38;5.60;;;36.50;46.70;;;;;;5044432;28;20024;-60
2022/08/18 09:20:20;;;;;;;10.40;5.35;;;36.80;46.30;;;;;;5053328;28;20313;-60
2022/08/18 09:23:33;;;;;;;9.38;5.65;;;37.00;47.40;;;;;;5053979;28;20399;-60
2022/08/18 09:26:23;;;;;;;12.35;6.03;;;36.90;46.30;;;;;;5053773;28;20505;-60
2022/08/18 09:29:12;;;;;;;12.53;5.03;;;37.40;42.60;;;;;;5050831;28;20124;-61
2022/08/18 09:32:12;;;;;;;10.52;5.70;;;37.00;41.30;;;;;;5052693;28;20055;-61
2022/08/18 09:34:44;;;;;;;11.47;5.37;;;37.10;40.70;;;;;;5053451;28;20017;-61
2022/08/18 09:41:30;;;;;;;10.98;5.63;;;37.30;40.80;;;;;;5050495;28;20111;-61
2022/08/18 09:44:28;;;;;;;7.72;4.60;;;38.20;38.80;;;;;;5058020;28;20025;-58
2022/08/18 09:47:05;;;;;;;16.52;5.45;;;37.90;37.50;;;;;;5057599;28;20087;-58
2022/08/18 09:49:55;;;;;;;8.48;5.05;;;37.50;39.70;;;;;;5057241;28;20104;-59
2022/08/18 09:52:25;;;;;;;8.85;4.03;;;37.90;38.60;;;;;;5055394;28;20025;-59
2022/08/18 09:54:57;;;;;;;;;;;38.20;36.30;;;;;;5058236;28;20033;-59
2022/08/18 09:57:34;;;;;;;10.25;4.70;;;38.20;36.60;;;;;;5057209;28;20017;-58
2022/08/18 10:00:10;;;;;;;10.70;4.57;;;38.30;38.50;;;;;;5057341;28;20029;-58
2022/08/18 10:02:40;;;;;;;9.32;3.90;;;38.70;36.70;;;;;;5050827;28;20127;-58
2022/08/18 10:05:16;;;;;;;14.73;5.45;;;38.30;35.50;;;;;;5041049;28;20159;-58
2022/08/18 10:08:15;;;;;;;9.65;4.15;;;38.30;36.80;;;;;;5045618;28;20029;-58
2022/08/18 10:11:17;;;;;;;10.38;4.30;;;38.40;36.60;;;;;;5056919;28;20047;-58
2022/08/18 10:14:03;;;;;;;10.93;4.88;;;38.60;37.90;;;;;;5056768;28;20025;-58
2022/08/18 10:16:44;;;;;;;10.13;5.07;;;38.70;37.00;;;;;;5056985;28;20104;-58
2022/08/18 10:19:35;;;;;;;11.65;4.53;;;38.80;36.30;;;;;;5057319;28;20044;-58
2022/08/18 10:22:05;;;;;;;9.93;5.10;;;38.70;35.20;;;;;;5057041;28;20390;-59
2022/08/18 10:24:39;;;;;;;10.95;4.57;;;38.50;34.90;;;;;;5056960;28;20033;-59
2022/08/18 10:27:40;;;;;;;8.18;4.03;;;38.90;34.60;;;;;;5055900;28;20082;-59
2022/08/18 10:30:32;;;;;;;13.48;4.32;;;38.80;33.80;;;;;;5056180;28;20024;-59
2022/08/18 10:33:00;;;;;;;11.95;4.63;;;38.70;33.00;;;;;;5053560;28;20017;-59
2022/08/18 10:35:35;;;;;;;14.52;5.38;;;39.00;33.50;;;;;;5056398;28;20025;-59
2022/08/18 10:38:24;;;;;;;13.00;4.88;;;37.90;34.30;;;;;;5055913;28;20032;-59
2022/08/18 10:41:01;;;;;;;13.77;4.63;;;37.50;35.60;;;;;;5052197;28;20051;-59
2022/08/18 10:43:41;;;;;;;10.73;5.07;;;38.40;33.70;;;;;;5053175;28;20269;-59
2022/08/18 10:46:19;;;;;;;9.35;4.32;;;38.50;32.00;;;;;;5056168;28;20071;-59
2022/08/18 10:49:12;;;;;;;8.40;3.72;;;38.90;31.50;;;;;;5056462;28;20494;-59
2022/08/18 10:52:04;;;;;;;12.55;4.43;;;39.00;31.10;;;;;;5053737;28;20025;-59
2022/08/18 10:54:41;;;;;;;11.15;4.57;;;39.00;29.80;;;;;;5052955;28;20449;-60
2022/08/18 10:57:28;;;;;;;9.70;4.00;;;39.30;29.10;;;;;;5051391;28;20017;-59
2022/08/18 11:00:00;;;;;;;7.88;4.07;;;38.90;27.80;;;;;;5042572;28;20021;-59
2022/08/18 11:02:44;;;;;;;13.93;4.40;;;39.30;29.10;;;;;;5052827;28;20033;-59
2022/08/18 11:05:14;;;;;;;14.13;4.97;;;39.40;28.90;;;;;;5055423;28;20025;-59
2022/08/18 11:07:42;;;;;;;14.77;4.60;;;39.40;27.80;;;;;;5046590;28;20060;-59
2022/08/18 11:10:19;;;;;;;14.77;4.78;;;39.50;27.70;;;;;;5061629;28;20466;-59
2022/08/18 11:12:53;;;;;;;12.13;3.40;;;39.70;27.20;;;;;;5056700;28;20086;-60
2022/08/18 11:15:40;;;;;;;11.85;3.53;;;39.90;27.10;;;;;;5055931;28;20025;-59
2022/08/18 11:18:27;;;;;;;12.35;3.53;;;40.10;26.60;;;;;;5056166;28;20028;-59
2022/08/18 11:21:13;;;;;;;15.20;3.97;;;40.40;28.60;;;;;;5054373;28;20115;-59
2022/08/18 11:23:39;;;;;;;16.38;6.93;;;40.50;27.20;;;;;;5035827;28;20112;-59
2022/08/18 11:26:15;;;;;;;10.13;4.15;;;40.50;26.80;;;;;;5039519;28;20110;-60
2022/08/18 11:28:41;;;;;;;9.35;3.65;;;40.70;26.70;;;;;;5048355;28;20025;-59
2022/08/18 11:31:08;;;;;;;11.15;3.13;;;40.60;26.40;;;;;;5052546;28;20040;-59
2022/08/18 11:33:38;;;;;;;5.47;2.63;;;41.00;26.40;;;;;;5049673;28;20299;-60
2022/08/18 11:36:05;;;;;;;6.07;2.63;;;40.70;23.70;;;;;;5045679;28;20022;-59
2022/08/18 11:38:32;;;;;;;10.55;3.25;;;41.10;24.90;;;;;;5035773;28;20376;-59
2022/08/18 11:41:17;;;;;;;6.10;2.83;;;40.70;21.80;;;;;;5034960;28;20025;-59
2022/08/18 11:43:44;;;;;;;5.38;2.20;;;40.50;20.20;;;;;;5035505;28;20116;-59
2022/08/18 11:46:13;;;;;;;7.22;3.20;;;39.80;20.10;;;;;;5035270;28;20136;-59
2022/08/18 11:48:45;;;;;;;3.90;2.27;;;40.30;21.10;;;;;;5035459;28;20052;-61
2022/08/18 11:51:20;;;;;;;12.20;3.40;;;40.20;19.70;;;;;;5035364;28;20068;-61
2022/08/18 11:53:46;;;;;;;9.70;2.88;;;39.90;22.20;;;;;;5034489;28;20053;-61
2022/08/18 11:56:43;;;;;;;6.53;3.35;;;40.40;23.30;;;;;;5040427;28;20066;-61
2022/08/18 11:59:24;;;;;;;7.13;2.83;;;40.70;22.70;;;;;;5040047;28;20049;-61
2022/08/18 12:01:53;;;;;;;13.57;4.75;;;40.50;24.30;;;;;;5053926;28;20035;-61
2022/08/18 12:04:21;;;;;;;6.65;3.10;;;40.70;23.90;;;;;;5054180;28;20056;-61
2022/08/18 12:06:58;;;;;;;5.05;3.28;;;40.80;21.00;;;;;;5035429;28;20123;-61
2022/08/18 12:10:10;;;;;;;4.90;3.17;;;41.00;18.70;;;;;;5034794;28;20033;-61
2022/08/18 12:12:44;;;;;;;7.00;2.85;;;40.90;21.70;;;;;;5041665;28;20452;-59
2022/08/18 12:15:13;;;;;;;9.23;4.15;;;40.40;21.30;;;;;;5053568;28;20033;-59
2022/08/18 12:17:44;;;;;;;7.40;3.80;;;40.50;20.70;;;;;;5049166;28;20025;-59
2022/08/18 12:20:13;;;;;;;13.05;3.50;;;40.60;19.70;;;;;;5043624;28;20040;-59
2022/08/18 12:22:42;;;;;;;5.47;2.95;;;40.50;21.30;;;;;;5034648;28;20037;-59
2022/08/18 12:25:12;;;;;;;5.53;2.92;;;40.80;20.50;;;;;;5034718;28;20033;-59
2022/08/18 12:27:38;;;;;;;4.72;3.22;;;40.30;21.20;;;;;;5035655;28;20384;-59
2022/08/18 12:30:06;;;;;;;11.20;4.00;;;40.50;23.40;;;;;;5047822;28;20028;-59
2022/08/18 12:32:46;;;;;;;8.20;3.70;;;40.70;21.50;;;;;;5051944;28;20062;-59
2022/08/18 12:35:12;;;;;;;6.07;3.20;;;40.60;19.90;;;;;;5051421;28;20025;-58
2022/08/18 12:37:44;;;;;;;5.32;3.10;;;40.30;21.60;;;;;;5052520;28;20116;-59
2022/08/18 12:40:11;;;;;;;8.13;3.60;;;40.50;21.40;;;;;;5054053;28;20495;-59
2022/08/18 12:42:37;;;;;;;23.92;6.55;;;40.70;22.40;;;;;;5046976;28;20106;-59
2022/08/18 12:45:03;;;;;;;8.13;3.33;;;40.90;21.60;;;;;;5034525;28;20471;-59
2022/08/18 12:47:30;;;;;;;4.68;2.80;;;40.60;20.90;;;;;;5052034;28;20534;-59
2022/08/18 12:49:56;;;;;;;9.88;3.65;;;40.50;20.00;;;;;;5035232;28;20491;-59
2022/08/18 12:52:22;;;;;;;7.03;3.20;;;39.80;20.10;;;;;;5054556;28;20112;-59
2022/08/18 12:54:48;;;;;;;6.40;3.10;;;39.80;20.20;;;;;;5053652;28;20045;-59
2022/08/18 12:57:25;;;;;;;8.60;3.55;;;39.90;21.20;;;;;;5046597;28;20100;-59
2022/08/18 12:59:51;;;;;;;6.95;3.00;;;39.30;21.20;;;;;;5037374;28;20031;-59
2022/08/18 13:02:17;;;;;;;8.45;3.22;;;39.10;21.00;;;;;;5048626;28;20064;-59
2022/08/18 13:04:43;;;;;;;9.73;2.70;;;39.30;20.90;;;;;;5051494;28;20056;-59
2022/08/18 13:07:11;;;;;;;6.68;4.00;;;39.40;20.50;;;;;;5045122;28;20039;-59
2022/08/18 13:09:38;;;;;;;9.00;3.50;;;39.70;20.80;;;;;;5043845;28;20028;-59
2022/08/18 13:12:05;;;;;;;7.72;3.47;;;39.70;21.00;;;;;;5046754;28;20107;-59
2022/08/18 13:14:31;;;;;;;7.15;3.08;;;39.80;20.60;;;;;;5051926;28;20101;-59
2022/08/18 13:16:57;;;;;;;6.65;3.58;;;40.10;20.90;;;;;;5056031;28;20028;-59
2022/08/18 13:19:24;;;;;;;10.05;4.13;;;39.60;20.80;;;;;;5053946;28;20479;-59
2022/08/18 13:21:50;;;;;;;10.27;4.10;;;39.50;21.50;;;;;;5052478;28;20064;-59
2022/08/18 13:24:17;;;;;;;8.80;3.35;;;39.60;23.80;;;;;;5053752;28;20029;-59
2022/08/18 13:26:45;;;;;;;28.02;5.72;;;39.80;22.00;;;;;;5053500;28;20028;-59
2022/08/18 13:29:12;;;;;;;7.35;2.88;;;39.70;21.90;;;;;;5054118;28;20048;-59
2022/08/18 13:31:38;;;;;;;6.20;3.47;;;39.80;21.90;;;;;;5053859;28;20025;-59
2022/08/18 13:34:07;;;;;;;7.50;3.00;;;39.40;21.30;;;;;;5053525;28;20032;-59
2022/08/18 13:36:46;;;;;;;10.30;3.67;;;39.30;21.10;;;;;;5051538;28;20025;-60